createdAt,value
2024-03-05T00:00:41.096Z,18.77
2024-03-05T00:03:09.919Z,17.10
2024-03-05T00:05:38.576Z,18.98
2024-03-05T00:08:08.025Z,18.58
2024-03-05T00:10:36.095Z,18.92
2024-03-05T00:13:05.460Z,18.17
2024-03-05T00:15:35.413Z,17.57
2024-03-05T00:18:05.663Z,17.05
2024-03-05T00:23:02.700Z,17.20
2024-03-05T00:25:30.859Z,18.02
2024-03-05T00:27:59.568Z,17.02
2024-03-05T00:30:28.711Z,17.40
2024-03-05T00:32:58.708Z,18.63
2024-03-05T00:35:29.125Z,18.13
2024-03-05T00:37:57.315Z,17.08
2024-03-05T00:40:26.180Z,18.48
2024-03-05T00:42:54.736Z,17.90
2024-03-05T00:45:23.286Z,17.00
2024-03-05T00:47:52.718Z,19.02
2024-03-05T00:50:23.737Z,17.30
2024-03-05T00:52:52.131Z,17.88
2024-03-05T00:55:20.898Z,17.98
2024-03-05T00:57:49.420Z,17.42
2024-03-05T01:00:21.030Z,17.40
2024-03-05T01:02:49.666Z,17.75
2024-03-05T01:05:20.029Z,19.75
2024-03-05T01:07:49.633Z,18.60
2024-03-05T01:12:47.062Z,19.30
2024-03-05T01:15:15.699Z,18.58
2024-03-05T01:17:44.229Z,18.63
2024-03-05T01:20:17.157Z,18.70
2024-03-05T01:22:45.498Z,20.27
2024-03-05T01:25:15.677Z,19.15
2024-03-05T01:30:49.463Z,17.73
2024-03-05T01:33:56.488Z,20.27
2024-03-05T01:37:05.410Z,19.05
2024-03-05T01:40:15.655Z,19.45
2024-03-05T01:46:33.251Z,19.50
2024-03-05T01:49:42.090Z,19.50
2024-03-05T01:52:50.957Z,19.08
2024-03-05T01:56:01.093Z,19.20
2024-03-05T01:59:09.925Z,19.70
2024-03-05T02:02:19.038Z,20.48
2024-03-05T02:05:27.927Z,20.02
2024-03-05T02:08:36.753Z,21.15
2024-03-05T02:11:52.919Z,22.13
2024-03-05T02:15:12.400Z,22.40
2024-03-05T02:18:21.117Z,19.40
2024-03-05T02:21:32.585Z,19.77
2024-03-05T02:24:41.256Z,20.50
2024-03-05T02:27:50.687Z,20.63
2024-03-05T02:30:59.468Z,15.00
2024-03-05T02:34:08.559Z,19.27
2024-03-05T02:37:18.997Z,20.02
2024-03-05T02:40:27.754Z,17.88
2024-03-05T02:43:36.402Z,20.42
2024-03-05T02:46:45.057Z,17.77
2024-03-05T02:49:53.744Z,17.98
2024-03-05T02:53:05.679Z,17.83
2024-03-05T02:56:14.875Z,18.38
2024-03-05T02:59:23.622Z,18.67
2024-03-05T03:02:32.255Z,16.17
2024-03-05T03:05:41.771Z,14.73
2024-03-05T03:08:51.804Z,15.67
2024-03-05T03:12:00.857Z,15.13
2024-03-05T03:15:10.347Z,14.82
2024-03-05T03:18:19.201Z,14.73
2024-03-05T03:21:28.532Z,14.30
2024-03-05T03:24:38.480Z,14.43
2024-03-05T03:27:47.821Z,15.35
2024-03-05T03:30:56.449Z,15.48
2024-03-05T03:34:05.163Z,13.23
2024-03-05T03:37:14.349Z,13.90
2024-03-05T03:40:24.619Z,14.35
2024-03-05T03:46:42.475Z,13.85
2024-03-05T03:49:51.314Z,14.00
2024-03-05T03:53:00.477Z,14.23
2024-03-05T03:56:10.714Z,13.38
2024-03-05T03:59:19.648Z,14.65
2024-03-05T04:02:28.736Z,14.10
2024-03-05T04:05:37.554Z,14.18
2024-03-05T04:08:46.203Z,14.27
2024-03-05T04:11:56.339Z,13.70
2024-03-05T04:15:06.540Z,14.43
2024-03-05T04:18:15.333Z,14.73
2024-03-05T04:21:24.543Z,15.60
2024-03-05T04:24:33.817Z,15.20
2024-03-05T04:27:47.977Z,16.48
2024-03-05T04:30:58.412Z,15.73
2024-03-05T04:34:08.714Z,17.23
2024-03-05T04:37:18.220Z,15.23
2024-03-05T04:40:27.695Z,17.50
2024-03-05T04:43:39.088Z,16.60
2024-03-05T04:46:47.754Z,16.55
2024-03-05T04:49:57.015Z,18.17
2024-03-05T04:53:06.071Z,17.75
2024-03-05T04:56:14.824Z,18.10
2024-03-05T04:59:25.476Z,19.20
2024-03-05T05:02:34.154Z,19.58
2024-03-05T05:05:42.804Z,17.20
2024-03-05T05:08:53.232Z,18.67
2024-03-05T05:12:02.075Z,20.00
2024-03-05T05:15:13.322Z,20.05
2024-03-05T05:18:22.181Z,21.10
2024-03-05T05:21:30.815Z,19.70
2024-03-05T05:24:39.487Z,19.88
2024-03-05T05:27:49.597Z,19.33
2024-03-05T05:31:00.030Z,20.52
2024-03-05T05:34:09.356Z,20.33
2024-03-05T05:37:18.041Z,21.00
2024-03-05T05:40:26.801Z,19.27
2024-03-05T05:43:35.687Z,21.52
2024-03-05T05:46:47.871Z,19.55
2024-03-05T05:49:56.675Z,17.75
2024-03-05T05:53:09.837Z,19.50
2024-03-05T05:56:18.819Z,18.88
2024-03-05T05:59:27.434Z,19.42
2024-03-05T06:02:38.164Z,18.25
2024-03-05T06:05:48.278Z,17.88
2024-03-05T06:08:56.883Z,19.40
2024-03-05T06:12:05.887Z,19.30
2024-03-05T06:15:14.684Z,19.40
2024-03-05T06:18:25.464Z,20.17
2024-03-05T06:21:34.098Z,20.02
2024-03-05T06:24:42.774Z,19.92
2024-03-05T06:27:51.539Z,19.17
2024-03-05T06:31:00.899Z,21.02
2024-03-05T06:34:12.349Z,19.40
2024-03-05T06:37:21.099Z,20.73
2024-03-05T06:40:29.887Z,18.92
2024-03-05T06:43:39.089Z,19.30
2024-03-05T06:46:50.150Z,19.70
2024-03-05T06:50:02.523Z,18.27
2024-03-05T06:53:30.030Z,18.75
2024-03-05T06:56:41.635Z,21.25
2024-03-05T06:59:50.992Z,18.92
2024-03-05T07:02:59.691Z,20.95
2024-03-05T07:06:11.193Z,20.30
2024-03-05T07:09:20.853Z,19.90
2024-03-05T07:12:31.466Z,18.70
2024-03-05T07:15:40.717Z,20.20
2024-03-05T07:18:50.873Z,20.60
2024-03-05T07:25:11.875Z,20.92
2024-03-05T07:28:20.507Z,20.02
2024-03-05T07:31:29.914Z,22.67
2024-03-05T07:34:38.763Z,21.37
2024-03-05T07:37:48.989Z,19.60
2024-03-05T07:44:07.132Z,21.38
2024-03-05T07:47:16.998Z,20.13
2024-03-05T07:50:04.512Z,20.40
2024-03-05T07:52:33.088Z,22.25
2024-03-05T07:55:05.043Z,21.90
2024-03-05T07:57:35.817Z,20.90
2024-03-05T08:00:09.824Z,21.25
2024-03-05T08:02:39.835Z,21.25
2024-03-05T08:05:08.970Z,20.30
2024-03-05T08:07:38.013Z,21.23
2024-03-05T08:10:10.039Z,22.27
2024-03-05T08:12:39.879Z,22.20
2024-03-05T08:15:13.460Z,20.25
2024-03-05T08:17:43.086Z,22.13
2024-03-05T08:20:14.151Z,23.60
2024-03-05T08:22:42.342Z,23.48
2024-03-05T08:25:14.014Z,24.08
2024-03-05T08:27:43.145Z,25.42
2024-03-05T08:30:16.335Z,24.55
2024-03-05T08:32:45.254Z,26.83
2024-03-05T08:35:13.971Z,25.05
2024-03-05T08:37:42.717Z,24.90
2024-03-05T08:40:14.962Z,26.25
2024-03-05T08:42:44.844Z,24.92
2024-03-05T08:45:14.700Z,27.65
2024-03-05T08:47:46.154Z,25.45
2024-03-05T08:50:14.914Z,24.80
2024-03-05T08:52:43.715Z,24.98
2024-03-05T08:55:15.401Z,27.20
2024-03-05T08:57:43.738Z,26.63
2024-03-05T09:00:31.584Z,25.13
2024-03-05T09:03:59.825Z,27.70
2024-03-05T09:06:29.431Z,25.02
2024-03-05T09:08:58.332Z,24.02
2024-03-05T09:11:29.094Z,25.13
2024-03-05T09:16:26.727Z,25.77
2024-03-05T09:18:57.036Z,26.30
2024-03-05T09:23:54.165Z,26.23
2024-03-05T09:26:22.884Z,26.58
2024-03-05T09:28:52.933Z,27.90
2024-03-05T09:31:21.497Z,29.20
2024-03-05T09:33:50.061Z,27.17
2024-03-05T09:36:18.762Z,27.40
2024-03-05T09:38:47.429Z,28.30
2024-03-05T09:41:15.976Z,27.08
2024-03-05T09:43:46.448Z,29.00
2024-03-05T09:46:16.576Z,25.85
2024-03-05T09:48:46.209Z,27.23
2024-03-05T09:51:15.437Z,24.38
2024-03-05T09:53:43.980Z,25.02
2024-03-05T09:56:14.793Z,27.73
2024-03-05T10:01:11.875Z,27.27
2024-03-05T10:03:43.227Z,27.08
2024-03-05T10:06:13.263Z,28.17
2024-03-05T10:08:41.914Z,28.45
2024-03-05T10:11:10.815Z,30.63
2024-03-05T10:13:39.447Z,29.15
2024-03-05T10:16:17.368Z,29.67
2024-03-05T10:18:48.755Z,30.17
2024-03-05T10:21:20.072Z,29.17
2024-03-05T10:23:50.380Z,30.40
2024-03-05T10:26:25.583Z,30.30
2024-03-05T10:28:54.462Z,32.15
2024-03-05T10:31:27.484Z,33.10
2024-03-05T10:33:59.341Z,33.92
2024-03-05T10:36:29.568Z,33.22
2024-03-05T10:41:39.172Z,32.40
2024-03-05T10:44:15.676Z,31.77
2024-03-05T10:46:44.393Z,33.33
2024-03-05T10:49:14.752Z,30.90
2024-03-05T10:51:44.522Z,33.70
2024-03-05T10:54:13.417Z,32.75
2024-03-05T10:56:44.791Z,32.13
2024-03-05T10:59:26.284Z,30.77
2024-03-05T11:01:55.961Z,31.58
2024-03-05T11:04:27.141Z,29.60
2024-03-05T11:06:57.256Z,29.92
2024-03-05T11:09:26.910Z,32.28
2024-03-05T11:12:02.930Z,32.15
2024-03-05T11:14:32.726Z,32.22
2024-03-05T11:17:11.188Z,31.20
2024-03-05T11:19:44.452Z,31.08
2024-03-05T11:22:24.664Z,28.83
2024-03-05T11:24:57.817Z,29.50
2024-03-05T11:27:26.752Z,31.55
2024-03-05T11:30:10.284Z,30.95
2024-03-05T11:32:39.396Z,30.50
2024-03-05T11:35:12.756Z,33.17
2024-03-05T11:37:49.841Z,30.67
2024-03-05T11:40:22.683Z,31.52
2024-03-05T11:42:55.203Z,30.83
2024-03-05T11:45:52.810Z,30.02
2024-03-05T11:48:23.330Z,29.17
2024-03-05T11:53:24.689Z,29.20
2024-03-05T11:55:53.819Z,27.83
2024-03-05T11:58:25.230Z,27.92
2024-03-05T12:01:02.144Z,27.00
2024-03-05T12:03:30.798Z,24.90
2024-03-05T12:06:01.264Z,28.08
2024-03-05T12:08:32.278Z,27.58
2024-03-05T12:11:03.416Z,27.13
2024-03-05T12:13:32.626Z,27.77
2024-03-05T12:16:11.215Z,28.65
2024-03-05T12:18:40.488Z,27.63
2024-03-05T12:21:11.797Z,27.33
2024-03-05T12:23:43.023Z,29.70
2024-03-05T12:26:13.293Z,28.88
2024-03-05T12:28:41.625Z,29.38
2024-03-05T12:31:10.838Z,29.38
2024-03-05T12:33:39.461Z,28.80
2024-03-05T12:36:08.758Z,26.92
2024-03-05T12:38:38.666Z,30.95
2024-03-05T12:41:07.489Z,30.02
2024-03-05T12:43:36.752Z,28.63
2024-03-05T12:46:05.711Z,31.95
2024-03-05T12:48:37.258Z,30.60
2024-03-05T12:51:06.252Z,30.00
2024-03-05T12:53:35.211Z,30.45
2024-03-05T12:56:06.723Z,32.55
2024-03-05T12:58:42.517Z,30.10
2024-03-05T13:01:12.061Z,32.22
2024-03-05T13:03:40.700Z,31.70
2024-03-05T13:06:09.671Z,30.65
2024-03-05T13:08:39.378Z,29.38
2024-03-05T13:11:09.371Z,29.75
2024-03-05T13:13:37.562Z,31.10
2024-03-05T13:16:07.134Z,27.70
2024-03-05T13:18:38.158Z,30.85
2024-03-05T13:21:07.677Z,30.35
2024-03-05T13:23:36.466Z,30.30
2024-03-05T13:26:05.382Z,30.75
2024-03-05T13:28:37.840Z,29.27
2024-03-05T13:31:08.236Z,32.67
2024-03-05T13:33:38.503Z,29.85
2024-03-05T13:38:36.876Z,28.38
2024-03-05T13:41:07.806Z,28.90
2024-03-05T13:43:38.249Z,30.20
2024-03-05T13:46:06.998Z,28.95
2024-03-05T13:48:35.615Z,29.73
2024-03-05T13:51:04.725Z,29.98
2024-03-05T13:53:34.080Z,31.33
2024-03-05T13:56:02.712Z,31.20
2024-03-05T13:58:30.778Z,28.92
2024-03-05T14:01:01.561Z,32.15
2024-03-05T14:03:30.108Z,31.58
2024-03-05T14:05:59.318Z,31.92
2024-03-05T14:08:29.915Z,31.75
2024-03-05T14:10:58.653Z,32.30
2024-03-05T14:13:27.216Z,32.83
2024-03-05T14:15:55.837Z,31.63
2024-03-05T14:18:25.834Z,32.33
2024-03-05T14:20:54.378Z,30.67
2024-03-05T14:23:24.055Z,31.40
2024-03-05T14:25:52.295Z,32.50
2024-03-05T14:28:21.001Z,31.35
2024-03-05T14:30:49.598Z,30.95
2024-03-05T14:33:19.383Z,31.92
2024-03-05T14:35:51.157Z,30.48
2024-03-05T14:38:21.352Z,31.17
2024-03-05T14:40:51.242Z,29.98
2024-03-05T14:43:19.826Z,29.23
2024-03-05T14:45:48.450Z,27.42
2024-03-05T14:48:17.091Z,28.02
2024-03-05T14:50:45.791Z,25.30
2024-03-05T14:53:15.796Z,28.90
2024-03-05T14:55:44.178Z,30.55
2024-03-05T14:58:13.560Z,29.60
2024-03-05T15:00:43.441Z,27.97
2024-03-05T15:03:11.988Z,28.02
2024-03-05T15:05:42.695Z,29.15
2024-03-05T15:08:11.363Z,26.95
2024-03-05T15:10:40.838Z,27.95
2024-03-05T15:13:09.798Z,27.48
2024-03-05T15:15:38.613Z,26.98
2024-03-05T15:18:07.791Z,27.15
2024-03-05T15:20:36.389Z,26.92
2024-03-05T15:23:05.236Z,28.42
2024-03-05T15:25:35.860Z,27.75
2024-03-05T15:28:08.359Z,26.70
2024-03-05T15:30:37.499Z,26.70
2024-03-05T15:33:10.729Z,26.23
2024-03-05T15:35:40.393Z,24.88
2024-03-05T15:38:09.362Z,27.80
2024-03-05T15:40:38.979Z,29.90
2024-03-05T15:45:40.064Z,27.70
2024-03-05T15:48:12.479Z,26.88
2024-03-05T15:50:42.652Z,27.73
2024-03-05T15:53:11.706Z,28.10
2024-03-05T15:55:43.878Z,27.48
2024-03-05T15:58:41.167Z,26.88
2024-03-05T16:01:09.403Z,28.63
2024-03-05T16:03:47.574Z,28.67
2024-03-05T16:06:22.181Z,26.42
2024-03-05T16:08:50.768Z,29.63
2024-03-05T16:11:19.783Z,29.55
2024-03-05T16:13:49.288Z,33.90
2024-03-05T16:16:21.155Z,31.52
2024-03-05T16:18:50.142Z,31.98
2024-03-05T16:21:18.772Z,32.58
2024-03-05T16:23:47.323Z,33.40
2024-03-05T16:26:15.936Z,32.60
2024-03-05T16:28:44.220Z,33.70
2024-03-05T16:31:16.996Z,31.60
2024-03-05T16:33:46.271Z,31.60
2024-03-05T16:36:15.335Z,33.00
2024-03-05T16:38:43.904Z,30.13
2024-03-05T16:41:12.680Z,31.30
2024-03-05T16:43:40.878Z,32.70
2024-03-05T16:46:09.715Z,32.08
2024-03-05T16:48:39.662Z,31.73
2024-03-05T16:51:08.267Z,32.10
2024-03-05T16:53:37.482Z,32.38
2024-03-05T16:56:07.298Z,33.40
2024-03-05T16:58:39.014Z,35.13
2024-03-05T17:01:13.701Z,34.65
2024-03-05T17:03:46.594Z,36.20
2024-03-05T17:06:18.525Z,35.35
2024-03-05T17:08:49.980Z,35.03
2024-03-05T17:11:21.700Z,38.60
2024-03-05T17:13:50.280Z,37.45
2024-03-05T17:16:20.218Z,37.25
2024-03-05T17:18:51.730Z,36.03
2024-03-05T17:21:20.626Z,40.55
2024-03-05T17:23:49.201Z,43.10
2024-03-05T17:26:17.939Z,40.15
2024-03-05T17:28:46.596Z,41.25
2024-03-05T17:31:15.224Z,43.28
2024-03-05T17:33:43.795Z,42.05
2024-03-05T17:36:13.726Z,41.20
2024-03-05T17:38:43.446Z,40.83
2024-03-05T17:41:12.126Z,39.15
2024-03-05T17:43:40.322Z,40.28
2024-03-05T17:46:10.794Z,37.90
2024-03-05T17:48:39.900Z,39.67
2024-03-05T17:51:11.615Z,39.13
2024-03-05T17:53:41.813Z,38.13
2024-03-05T17:56:12.602Z,38.17
2024-03-05T17:58:41.259Z,38.97
2024-03-05T18:01:12.808Z,38.00
2024-03-05T18:03:44.596Z,39.63
2024-03-05T18:06:17.340Z,43.20
2024-03-05T18:08:47.653Z,42.38
2024-03-05T18:11:16.588Z,42.22
2024-03-05T18:13:45.071Z,46.67
2024-03-05T18:16:14.081Z,48.85
2024-03-05T18:18:42.612Z,50.20
2024-03-05T18:21:14.429Z,49.08
2024-03-05T18:23:43.375Z,50.38
2024-03-05T18:26:14.752Z,43.25
2024-03-05T18:28:44.515Z,46.33
2024-03-05T18:33:47.234Z,42.30
2024-03-05T18:36:16.949Z,43.63
2024-03-05T18:38:48.646Z,43.95
2024-03-05T18:41:18.877Z,41.28
2024-03-05T18:43:47.341Z,44.22
2024-03-05T18:46:16.863Z,47.35
2024-03-05T18:48:45.594Z,47.10
2024-03-05T18:51:15.227Z,45.10
2024-03-05T18:53:46.793Z,42.50
2024-03-05T18:56:20.034Z,44.78
2024-03-05T18:58:48.292Z,45.00
2024-03-05T19:01:16.931Z,44.60
2024-03-05T19:03:46.134Z,46.33
2024-03-05T19:06:15.245Z,44.60
2024-03-05T19:08:44.269Z,47.50
2024-03-05T19:11:36.390Z,45.60
2024-03-05T19:14:08.393Z,41.55
2024-03-05T19:16:37.840Z,42.65
2024-03-05T19:19:06.809Z,44.33
2024-03-05T19:21:35.707Z,44.47
2024-03-05T19:24:04.766Z,41.63
2024-03-05T19:26:33.671Z,44.13
2024-03-05T19:29:05.217Z,43.22
2024-03-05T19:31:34.281Z,42.97
2024-03-05T19:34:04.036Z,45.47
2024-03-05T19:36:33.187Z,45.45
2024-03-05T19:39:01.914Z,42.30
2024-03-05T19:41:31.025Z,41.85
2024-03-05T19:44:01.199Z,43.10
2024-03-05T19:46:30.979Z,41.47
2024-03-05T19:51:56.758Z,39.33
2024-03-05T19:54:25.912Z,42.50
2024-03-05T19:56:54.568Z,40.85
2024-03-05T19:59:23.176Z,42.33
2024-03-05T20:01:52.639Z,40.97
2024-03-05T20:04:22.238Z,43.78
2024-03-05T20:06:50.927Z,44.05
2024-03-05T20:13:00.283Z,41.92
2024-03-05T20:15:28.804Z,43.63
2024-03-05T20:17:58.705Z,40.83
2024-03-05T20:20:29.103Z,45.72
2024-03-05T20:22:57.144Z,46.97
2024-03-05T20:25:26.836Z,48.35
2024-03-05T20:27:56.381Z,45.05
2024-03-05T20:30:24.937Z,44.65
2024-03-05T20:32:53.770Z,45.58
2024-03-05T20:35:25.689Z,45.20
2024-03-05T20:37:55.377Z,45.05
2024-03-05T20:42:57.382Z,47.78
2024-03-05T20:45:26.622Z,50.53
2024-03-05T20:47:55.213Z,45.60
2024-03-05T20:50:25.294Z,50.17
2024-03-05T20:52:54.223Z,46.15
2024-03-05T20:55:26.754Z,46.27
2024-03-05T20:57:57.066Z,47.78
2024-03-05T21:00:28.899Z,45.75
2024-03-05T21:02:59.781Z,47.85
2024-03-05T21:05:32.115Z,48.25
2024-03-05T21:08:01.087Z,49.25
2024-03-05T21:10:29.360Z,47.85
2024-03-05T21:12:58.135Z,44.78
2024-03-05T21:15:26.893Z,50.33
2024-03-05T21:17:55.438Z,49.05
2024-03-05T21:20:24.327Z,47.05
2024-03-05T21:22:53.946Z,46.35
2024-03-05T21:25:23.478Z,47.67
2024-03-05T21:27:52.458Z,45.70
2024-03-05T21:30:21.301Z,44.63
2024-03-05T21:32:50.136Z,43.70
2024-03-05T21:35:18.827Z,41.72
2024-03-05T21:37:47.411Z,45.28
2024-03-05T21:40:18.268Z,41.20
2024-03-05T21:42:47.039Z,41.75
2024-03-05T21:45:16.499Z,42.22
2024-03-05T21:47:46.712Z,45.83
2024-03-05T21:50:15.627Z,45.23
2024-03-05T21:52:47.276Z,42.75
2024-03-05T21:55:17.912Z,42.90
2024-03-05T21:57:46.515Z,45.42
2024-03-05T22:00:16.019Z,41.53
2024-03-05T22:02:44.861Z,39.30
2024-03-05T22:05:13.996Z,41.78
2024-03-05T22:07:42.382Z,43.50
2024-03-05T22:10:11.619Z,42.53
2024-03-05T22:12:42.263Z,42.45
2024-03-05T22:15:12.241Z,45.47
2024-03-05T22:17:42.243Z,43.83
2024-03-05T22:20:14.854Z,46.08
2024-03-05T22:22:43.023Z,46.83
2024-03-05T22:25:11.611Z,47.15
2024-03-05T22:27:41.691Z,48.10
2024-03-05T22:30:11.175Z,50.90
2024-03-05T22:32:39.962Z,50.47
2024-03-05T22:35:11.188Z,46.15
2024-03-05T22:37:41.042Z,47.47
2024-03-05T22:42:41.883Z,49.35
2024-03-05T22:45:11.863Z,43.25
2024-03-05T22:47:40.532Z,42.88
2024-03-05T22:50:10.911Z,46.28
2024-03-05T22:52:39.605Z,44.40
2024-03-05T22:55:09.394Z,46.28
2024-03-05T22:57:38.342Z,47.60
2024-03-05T23:00:23.549Z,51.22
2024-03-05T23:02:54.044Z,46.08
2024-03-05T23:05:23.419Z,48.08
2024-03-05T23:07:52.344Z,46.97
2024-03-05T23:10:21.084Z,48.50
2024-03-05T23:12:49.533Z,47.67
2024-03-05T23:15:20.090Z,46.88
2024-03-05T23:17:48.676Z,49.58
2024-03-05T23:20:18.786Z,53.28
2024-03-05T23:22:48.711Z,53.97
2024-03-05T23:27:47.941Z,49.70
2024-03-05T23:30:17.560Z,51.17
2024-03-05T23:32:49.459Z,52.38
2024-03-05T23:35:18.665Z,52.25
2024-03-05T23:37:47.304Z,57.78
2024-03-05T23:40:15.959Z,51.22
2024-03-05T23:42:44.448Z,51.97
2024-03-05T23:45:13.177Z,55.13
2024-03-05T23:47:42.098Z,54.83
2024-03-05T23:52:41.885Z,56.42
2024-03-05T23:55:10.656Z,55.70
2024-03-05T23:57:39.289Z,55.55
